sensor_id;sensor_type;location;lat;lon;timestamp;P1;durP1;ratioP1;P2;durP2;ratioP2
2646;SDS011;1333;50.958;6.770;2022-08-06T00:02:00;1.20;;;1.10;;
2646;SDS011;1333;50.958;6.770;2022-08-06T00:04:25;1.40;;;1.30;;
2646;SDS011;1333;50.958;6.770;2022-08-06T00:06:51;1.40;;;1.10;;
2646;SDS011;1333;50.958;6.770;2022-08-06T00:09:16;6.00;;;1.33;;
2646;SDS011;1333;50.958;6.770;2022-08-06T00:11:42;2.37;;;1.20;;
2646;SDS011;1333;50.958;6.770;2022-08-06T00:14:08;2.63;;;1.20;;
2646;SDS011;1333;50.958;6.770;2022-08-06T00:16:34;3.27;;;1.40;;
2646;SDS011;1333;50.958;6.770;2022-08-06T00:19:00;3.23;;;1.40;;
2646;SDS011;1333;50.958;6.770;2022-08-06T00:21:25;3.57;;;1.30;;
2646;SDS011;1333;50.958;6.770;2022-08-06T00:23:51;2.13;;;1.40;;
2646;SDS011;1333;50.958;6.770;2022-08-06T00:26:17;1.30;;;1.20;;
2646;SDS011;1333;50.958;6.770;2022-08-06T00:28:42;1.70;;;1.20;;
2646;SDS011;1333;50.958;6.770;2022-08-06T00:31:08;1.20;;;1.10;;
2646;SDS011;1333;50.958;6.770;2022-08-06T00:33:34;2.17;;;1.30;;
2646;SDS011;1333;50.958;6.770;2022-08-06T00:36:00;1.30;;;1.00;;
2646;SDS011;1333;50.958;6.770;2022-08-06T00:38:25;1.70;;;1.37;;
2646;SDS011;1333;50.958;6.770;2022-08-06T00:40:51;1.50;;;1.10;;
2646;SDS011;1333;50.958;6.770;2022-08-06T00:43:18;1.23;;;1.10;;
2646;SDS011;1333;50.958;6.770;2022-08-06T00:45:44;5.23;;;2.20;;
2646;SDS011;1333;50.958;6.770;2022-08-06T00:48:09;2.37;;;1.30;;
2646;SDS011;1333;50.958;6.770;2022-08-06T00:50:35;1.40;;;1.10;;
2646;SDS011;1333;50.958;6.770;2022-08-06T00:53:01;3.57;;;1.23;;
2646;SDS011;1333;50.958;6.770;2022-08-06T00:55:28;1.93;;;1.70;;
2646;SDS011;1333;50.958;6.770;2022-08-06T00:57:55;4.87;;;2.30;;
2646;SDS011;1333;50.958;6.770;2022-08-06T01:00:20;1.70;;;1.33;;
2646;SDS011;1333;50.958;6.770;2022-08-06T01:02:46;1.80;;;1.50;;
2646;SDS011;1333;50.958;6.770;2022-08-06T01:05:11;2.33;;;1.23;;
2646;SDS011;1333;50.958;6.770;2022-08-06T01:07:37;4.13;;;1.30;;
2646;SDS011;1333;50.958;6.770;2022-08-06T01:10:03;1.50;;;1.20;;
2646;SDS011;1333;50.958;6.770;2022-08-06T01:12:29;1.60;;;1.37;;
2646;SDS011;1333;50.958;6.770;2022-08-06T01:14:54;1.83;;;1.50;;
2646;SDS011;1333;50.958;6.770;2022-08-06T01:17:27;3.20;;;1.67;;
2646;SDS011;1333;50.958;6.770;2022-08-06T01:28:16;2.23;;;1.37;;
2646;SDS011;1333;50.958;6.770;2022-08-06T01:31:04;2.47;;;1.70;;
2646;SDS011;1333;50.958;6.770;2022-08-06T01:33:35;2.67;;;1.50;;
2646;SDS011;1333;50.958;6.770;2022-08-06T01:36:27;1.70;;;1.40;;
2646;SDS011;1333;50.958;6.770;2022-08-06T01:39:01;2.00;;;1.40;;
2646;SDS011;1333;50.958;6.770;2022-08-06T01:41:29;3.00;;;1.60;;
2646;SDS011;1333;50.958;6.770;2022-08-06T01:44:17;1.63;;;1.50;;
2646;SDS011;1333;50.958;6.770;2022-08-06T01:46:49;1.37;;;1.23;;
2646;SDS011;1333;50.958;6.770;2022-08-06T01:49:24;2.93;;;1.50;;
2646;SDS011;1333;50.958;6.770;2022-08-06T01:51:52;1.50;;;1.37;;
2646;SDS011;1333;50.958;6.770;2022-08-06T01:54:20;8.33;;;1.30;;
2646;SDS011;1333;50.958;6.770;2022-08-06T01:56:51;2.97;;;1.30;;
2646;SDS011;1333;50.958;6.770;2022-08-06T01:59:20;2.00;;;1.50;;
2646;SDS011;1333;50.958;6.770;2022-08-06T02:01:49;1.60;;;1.50;;
2646;SDS011;1333;50.958;6.770;2022-08-06T02:04:19;2.60;;;1.60;;
2646;SDS011;1333;50.958;6.770;2022-08-06T02:06:48;5.77;;;1.40;;
2646;SDS011;1333;50.958;6.770;2022-08-06T02:09:19;3.67;;;1.37;;
2646;SDS011;1333;50.958;6.770;2022-08-06T02:11:48;1.50;;;1.17;;
2646;SDS011;1333;50.958;6.770;2022-08-06T02:14:19;2.30;;;1.23;;
2646;SDS011;1333;50.958;6.770;2022-08-06T02:16:47;5.33;;;1.60;;
2646;SDS011;1333;50.958;6.770;2022-08-06T02:19:14;3.17;;;1.70;;
2646;SDS011;1333;50.958;6.770;2022-08-06T02:21:43;4.10;;;1.80;;
2646;SDS011;1333;50.958;6.770;2022-08-06T02:24:11;1.47;;;1.03;;
2646;SDS011;1333;50.958;6.770;2022-08-06T02:26:38;3.07;;;1.50;;
2646;SDS011;1333;50.958;6.770;2022-08-06T02:29:06;1.60;;;1.37;;
2646;SDS011;1333;50.958;6.770;2022-08-06T02:31:34;2.93;;;1.50;;
2646;SDS011;1333;50.958;6.770;2022-08-06T02:34:00;1.30;;;1.20;;
2646;SDS011;1333;50.958;6.770;2022-08-06T02:39:03;2.40;;;1.77;;
2646;SDS011;1333;50.958;6.770;2022-08-06T02:41:40;2.30;;;1.43;;
2646;SDS011;1333;50.958;6.770;2022-08-06T02:44:14;3.97;;;1.70;;
2646;SDS011;1333;50.958;6.770;2022-08-06T02:46:52;1.27;;;1.10;;
2646;SDS011;1333;50.958;6.770;2022-08-06T02:49:25;1.87;;;1.30;;
2646;SDS011;1333;50.958;6.770;2022-08-06T02:51:58;2.53;;;1.37;;
2646;SDS011;1333;50.958;6.770;2022-08-06T02:55:00;2.03;;;1.83;;
2646;SDS011;1333;50.958;6.770;2022-08-06T02:57:33;2.37;;;1.60;;
2646;SDS011;1333;50.958;6.770;2022-08-06T03:00:05;2.33;;;1.93;;
2646;SDS011;1333;50.958;6.770;2022-08-06T03:02:34;3.30;;;1.87;;
2646;SDS011;1333;50.958;6.770;2022-08-06T03:05:02;3.30;;;1.97;;
2646;SDS011;1333;50.958;6.770;2022-08-06T03:07:30;19.93;;;2.23;;
2646;SDS011;1333;50.958;6.770;2022-08-06T03:09:58;4.17;;;1.33;;
2646;SDS011;1333;50.958;6.770;2022-08-06T03:12:25;1.67;;;1.17;;
2646;SDS011;1333;50.958;6.770;2022-08-06T03:14:52;3.30;;;1.57;;
2646;SDS011;1333;50.958;6.770;2022-08-06T03:17:19;3.70;;;1.43;;
2646;SDS011;1333;50.958;6.770;2022-08-06T03:19:46;3.33;;;1.40;;
2646;SDS011;1333;50.958;6.770;2022-08-06T03:22:13;2.57;;;1.70;;
2646;SDS011;1333;50.958;6.770;2022-08-06T03:24:41;3.00;;;1.80;;
2646;SDS011;1333;50.958;6.770;2022-08-06T03:27:08;1.50;;;1.33;;
2646;SDS011;1333;50.958;6.770;2022-08-06T03:29:35;3.70;;;2.03;;
2646;SDS011;1333;50.958;6.770;2022-08-06T03:32:02;9.63;;;1.80;;
2646;SDS011;1333;50.958;6.770;2022-08-06T03:34:28;2.03;;;1.70;;
2646;SDS011;1333;50.958;6.770;2022-08-06T03:36:55;1.50;;;1.30;;
2646;SDS011;1333;50.958;6.770;2022-08-06T03:39:22;3.83;;;1.50;;
2646;SDS011;1333;50.958;6.770;2022-08-06T03:41:50;1.83;;;1.73;;
2646;SDS011;1333;50.958;6.770;2022-08-06T03:44:18;3.73;;;1.97;;
2646;SDS011;1333;50.958;6.770;2022-08-06T03:46:46;1.90;;;1.63;;
2646;SDS011;1333;50.958;6.770;2022-08-06T03:49:21;5.50;;;1.90;;
2646;SDS011;1333;50.958;6.770;2022-08-06T03:51:51;5.40;;;1.83;;
2646;SDS011;1333;50.958;6.770;2022-08-06T03:54:19;2.40;;;1.67;;
2646;SDS011;1333;50.958;6.770;2022-08-06T03:56:51;1.83;;;1.60;;
2646;SDS011;1333;50.958;6.770;2022-08-06T03:59:19;2.27;;;1.77;;
2646;SDS011;1333;50.958;6.770;2022-08-06T04:01:48;4.50;;;2.30;;
2646;SDS011;1333;50.958;6.770;2022-08-06T04:04:14;2.70;;;1.27;;
2646;SDS011;1333;50.958;6.770;2022-08-06T04:06:42;2.23;;;1.93;;
2646;SDS011;1333;50.958;6.770;2022-08-06T04:09:09;10.90;;;2.00;;
2646;SDS011;1333;50.958;6.770;2022-08-06T04:11:35;8.63;;;1.70;;
2646;SDS011;1333;50.958;6.770;2022-08-06T04:14:02;2.30;;;1.60;;
2646;SDS011;1333;50.958;6.770;2022-08-06T04:16:30;3.03;;;1.60;;
2646;SDS011;1333;50.958;6.770;2022-08-06T04:18:56;2.70;;;1.90;;
2646;SDS011;1333;50.958;6.770;2022-08-06T04:21:23;3.17;;;2.40;;
2646;SDS011;1333;50.958;6.770;2022-08-06T04:23:49;3.57;;;2.23;;
2646;SDS011;1333;50.958;6.770;2022-08-06T04:26:17;9.23;;;1.83;;
2646;SDS011;1333;50.958;6.770;2022-08-06T04:28:48;2.40;;;1.70;;
2646;SDS011;1333;50.958;6.770;2022-08-06T04:31:16;4.50;;;2.13;;
2646;SDS011;1333;50.958;6.770;2022-08-06T04:33:44;1.50;;;1.40;;
2646;SDS011;1333;50.958;6.770;2022-08-06T04:36:10;2.10;;;1.83;;
2646;SDS011;1333;50.958;6.770;2022-08-06T04:38:37;1.83;;;1.37;;
2646;SDS011;1333;50.958;6.770;2022-08-06T04:41:03;1.60;;;1.50;;
2646;SDS011;1333;50.958;6.770;2022-08-06T04:43:29;1.70;;;1.57;;
2646;SDS011;1333;50.958;6.770;2022-08-06T04:45:55;3.77;;;1.63;;
2646;SDS011;1333;50.958;6.770;2022-08-06T04:48:22;4.50;;;2.27;;
2646;SDS011;1333;50.958;6.770;2022-08-06T04:50:49;2.77;;;2.23;;
2646;SDS011;1333;50.958;6.770;2022-08-06T04:53:15;2.33;;;1.50;;
2646;SDS011;1333;50.958;6.770;2022-08-06T04:55:42;1.90;;;1.70;;
2646;SDS011;1333;50.958;6.770;2022-08-06T04:58:10;6.10;;;2.20;;
2646;SDS011;1333;50.958;6.770;2022-08-06T05:00:38;1.67;;;1.57;;
2646;SDS011;1333;50.958;6.770;2022-08-06T05:03:05;5.67;;;1.77;;
2646;SDS011;1333;50.958;6.770;2022-08-06T05:05:33;1.87;;;1.63;;
2646;SDS011;1333;50.958;6.770;2022-08-06T05:08:09;1.60;;;1.47;;
2646;SDS011;1333;50.958;6.770;2022-08-06T05:10:41;3.03;;;1.80;;
2646;SDS011;1333;50.958;6.770;2022-08-06T05:13:13;1.40;;;1.30;;
2646;SDS011;1333;50.958;6.770;2022-08-06T05:15:41;2.10;;;1.70;;
2646;SDS011;1333;50.958;6.770;2022-08-06T05:18:15;2.53;;;2.33;;
2646;SDS011;1333;50.958;6.770;2022-08-06T05:20:47;5.67;;;2.30;;
2646;SDS011;1333;50.958;6.770;2022-08-06T05:23:21;3.10;;;2.20;;
2646;SDS011;1333;50.958;6.770;2022-08-06T05:25:51;2.57;;;2.10;;
2646;SDS011;1333;50.958;6.770;2022-08-06T05:28:17;7.27;;;3.10;;
2646;SDS011;1333;50.958;6.770;2022-08-06T05:30:52;6.30;;;2.90;;
2646;SDS011;1333;50.958;6.770;2022-08-06T05:33:21;5.03;;;3.80;;
2646;SDS011;1333;50.958;6.770;2022-08-06T05:35:58;5.90;;;3.23;;
2646;SDS011;1333;50.958;6.770;2022-08-06T05:38:24;2.87;;;2.60;;
2646;SDS011;1333;50.958;6.770;2022-08-06T05:40:53;5.80;;;3.03;;
2646;SDS011;1333;50.958;6.770;2022-08-06T05:43:20;5.90;;;3.47;;
2646;SDS011;1333;50.958;6.770;2022-08-06T05:45:48;3.77;;;2.40;;
2646;SDS011;1333;50.958;6.770;2022-08-06T05:48:27;2.93;;;2.67;;
2646;SDS011;1333;50.958;6.770;2022-08-06T05:50:57;3.00;;;2.70;;
2646;SDS011;1333;50.958;6.770;2022-08-06T05:53:32;2.87;;;2.57;;
2646;SDS011;1333;50.958;6.770;2022-08-06T05:56:10;2.67;;;2.10;;
2646;SDS011;1333;50.958;6.770;2022-08-06T05:58:47;3.40;;;2.10;;
2646;SDS011;1333;50.958;6.770;2022-08-06T06:01:16;4.50;;;1.80;;
2646;SDS011;1333;50.958;6.770;2022-08-06T06:03:42;3.90;;;2.57;;
2646;SDS011;1333;50.958;6.770;2022-08-06T06:06:09;2.43;;;2.23;;
2646;SDS011;1333;50.958;6.770;2022-08-06T06:08:36;3.50;;;2.10;;
2646;SDS011;1333;50.958;6.770;2022-08-06T06:11:03;2.83;;;1.70;;
2646;SDS011;1333;50.958;6.770;2022-08-06T06:13:30;2.33;;;1.57;;
2646;SDS011;1333;50.958;6.770;2022-08-06T06:19:18;2.90;;;1.33;;
2646;SDS011;1333;50.958;6.770;2022-08-06T06:24:40;1.97;;;1.40;;
2646;SDS011;1333;50.958;6.770;2022-08-06T06:34:59;4.33;;;1.60;;
2646;SDS011;1333;50.958;6.770;2022-08-06T06:40:38;2.70;;;1.70;;
2646;SDS011;1333;50.958;6.770;2022-08-06T06:43:20;2.33;;;1.80;;
2646;SDS011;1333;50.958;6.770;2022-08-06T06:45:55;7.67;;;1.70;;
2646;SDS011;1333;50.958;6.770;2022-08-06T06:48:35;3.90;;;1.80;;
2646;SDS011;1333;50.958;6.770;2022-08-06T06:51:12;2.93;;;1.60;;
2646;SDS011;1333;50.958;6.770;2022-08-06T06:53:43;2.20;;;1.87;;
2646;SDS011;1333;50.958;6.770;2022-08-06T06:56:10;2.53;;;1.80;;
2646;SDS011;1333;50.958;6.770;2022-08-06T06:58:40;3.03;;;2.00;;
2646;SDS011;1333;50.958;6.770;2022-08-06T07:01:09;4.40;;;1.60;;
2646;SDS011;1333;50.958;6.770;2022-08-06T07:03:37;2.47;;;1.83;;
2646;SDS011;1333;50.958;6.770;2022-08-06T07:06:04;3.07;;;2.07;;
2646;SDS011;1333;50.958;6.770;2022-08-06T07:08:33;3.30;;;1.60;;
2646;SDS011;1333;50.958;6.770;2022-08-06T07:11:02;1.83;;;1.70;;
2646;SDS011;1333;50.958;6.770;2022-08-06T07:13:30;2.90;;;1.70;;
2646;SDS011;1333;50.958;6.770;2022-08-06T07:15:57;1.80;;;1.70;;
2646;SDS011;1333;50.958;6.770;2022-08-06T07:18:24;3.67;;;1.73;;
2646;SDS011;1333;50.958;6.770;2022-08-06T07:20:51;3.90;;;2.40;;
2646;SDS011;1333;50.958;6.770;2022-08-06T07:23:18;5.53;;;1.83;;
2646;SDS011;1333;50.958;6.770;2022-08-06T07:25:46;3.30;;;2.80;;
2646;SDS011;1333;50.958;6.770;2022-08-06T07:28:13;2.10;;;1.50;;
2646;SDS011;1333;50.958;6.770;2022-08-06T07:30:40;3.20;;;1.60;;
2646;SDS011;1333;50.958;6.770;2022-08-06T07:33:07;9.63;;;1.73;;
2646;SDS011;1333;50.958;6.770;2022-08-06T07:35:35;2.20;;;1.60;;
2646;SDS011;1333;50.958;6.770;2022-08-06T07:38:05;1.57;;;1.23;;
2646;SDS011;1333;50.958;6.770;2022-08-06T07:40:37;2.37;;;1.73;;
2646;SDS011;1333;50.958;6.770;2022-08-06T07:45:35;3.27;;;2.10;;
2646;SDS011;1333;50.958;6.770;2022-08-06T07:48:04;2.73;;;2.07;;
2646;SDS011;1333;50.958;6.770;2022-08-06T07:50:32;3.13;;;1.83;;
2646;SDS011;1333;50.958;6.770;2022-08-06T07:52:58;1.77;;;1.43;;
2646;SDS011;1333;50.958;6.770;2022-08-06T07:55:24;2.90;;;1.47;;
2646;SDS011;1333;50.958;6.770;2022-08-06T07:57:52;2.53;;;1.70;;
2646;SDS011;1333;50.958;6.770;2022-08-06T08:00:19;1.67;;;1.50;;
2646;SDS011;1333;50.958;6.770;2022-08-06T08:02:45;2.83;;;2.00;;
2646;SDS011;1333;50.958;6.770;2022-08-06T08:05:32;4.13;;;1.50;;
2646;SDS011;1333;50.958;6.770;2022-08-06T08:08:17;2.47;;;1.50;;
2646;SDS011;1333;50.958;6.770;2022-08-06T08:10:43;2.17;;;1.47;;
2646;SDS011;1333;50.958;6.770;2022-08-06T08:13:09;4.80;;;1.43;;
2646;SDS011;1333;50.958;6.770;2022-08-06T08:15:36;1.50;;;1.30;;
2646;SDS011;1333;50.958;6.770;2022-08-06T08:18:02;1.73;;;1.27;;
2646;SDS011;1333;50.958;6.770;2022-08-06T08:20:29;2.40;;;1.83;;
2646;SDS011;1333;50.958;6.770;2022-08-06T08:22:55;2.27;;;1.50;;
2646;SDS011;1333;50.958;6.770;2022-08-06T08:25:21;3.33;;;1.50;;
2646;SDS011;1333;50.958;6.770;2022-08-06T08:27:46;2.00;;;1.70;;
2646;SDS011;1333;50.958;6.770;2022-08-06T08:30:12;3.73;;;2.00;;
2646;SDS011;1333;50.958;6.770;2022-08-06T08:32:38;1.53;;;1.43;;
2646;SDS011;1333;50.958;6.770;2022-08-06T08:35:03;1.67;;;1.30;;
2646;SDS011;1333;50.958;6.770;2022-08-06T08:37:29;2.03;;;1.53;;
2646;SDS011;1333;50.958;6.770;2022-08-06T08:39:55;2.43;;;1.50;;
2646;SDS011;1333;50.958;6.770;2022-08-06T08:42:27;4.60;;;1.50;;
2646;SDS011;1333;50.958;6.770;2022-08-06T08:44:59;2.07;;;1.37;;
2646;SDS011;1333;50.958;6.770;2022-08-06T08:47:26;2.60;;;1.40;;
2646;SDS011;1333;50.958;6.770;2022-08-06T08:49:54;2.47;;;1.30;;
2646;SDS011;1333;50.958;6.770;2022-08-06T08:52:26;1.50;;;1.37;;
2646;SDS011;1333;50.958;6.770;2022-08-06T08:54:58;2.10;;;1.70;;
2646;SDS011;1333;50.958;6.770;2022-08-06T08:57:28;1.37;;;1.20;;
2646;SDS011;1333;50.958;6.770;2022-08-06T08:59:55;1.40;;;1.30;;
2646;SDS011;1333;50.958;6.770;2022-08-06T09:02:20;1.30;;;1.20;;
2646;SDS011;1333;50.958;6.770;2022-08-06T09:04:48;2.10;;;1.50;;
2646;SDS011;1333;50.958;6.770;2022-08-06T09:07:14;2.77;;;1.60;;
2646;SDS011;1333;50.958;6.770;2022-08-06T09:09:41;1.47;;;1.37;;
2646;SDS011;1333;50.958;6.770;2022-08-06T09:12:07;1.53;;;1.40;;
2646;SDS011;1333;50.958;6.770;2022-08-06T09:14:33;2.03;;;1.67;;
2646;SDS011;1333;50.958;6.770;2022-08-06T09:17:01;8.40;;;1.97;;
2646;SDS011;1333;50.958;6.770;2022-08-06T09:19:28;1.60;;;1.20;;
2646;SDS011;1333;50.958;6.770;2022-08-06T09:21:57;1.47;;;1.37;;
2646;SDS011;1333;50.958;6.770;2022-08-06T09:24:24;1.57;;;1.47;;
2646;SDS011;1333;50.958;6.770;2022-08-06T09:27:09;1.40;;;1.30;;
2646;SDS011;1333;50.958;6.770;2022-08-06T09:29:36;1.40;;;1.17;;
2646;SDS011;1333;50.958;6.770;2022-08-06T09:35:25;2.37;;;1.10;;
2646;SDS011;1333;50.958;6.770;2022-08-06T09:38:00;1.27;;;1.10;;
2646;SDS011;1333;50.958;6.770;2022-08-06T09:40:27;1.43;;;1.20;;
2646;SDS011;1333;50.958;6.770;2022-08-06T09:42:53;1.53;;;1.10;;
2646;SDS011;1333;50.958;6.770;2022-08-06T09:45:19;1.50;;;1.40;;
2646;SDS011;1333;50.958;6.770;2022-08-06T09:47:47;2.33;;;1.20;;
2646;SDS011;1333;50.958;6.770;2022-08-06T09:50:34;1.70;;;1.17;;
2646;SDS011;1333;50.958;6.770;2022-08-06T09:53:03;1.40;;;1.20;;
2646;SDS011;1333;50.958;6.770;2022-08-06T09:55:29;1.20;;;1.10;;
2646;SDS011;1333;50.958;6.770;2022-08-06T09:57:55;1.20;;;1.10;;
2646;SDS011;1333;50.958;6.770;2022-08-06T10:00:25;1.10;;;1.00;;
2646;SDS011;1333;50.958;6.770;2022-08-06T10:02:59;1.10;;;0.90;;
2646;SDS011;1333;50.958;6.770;2022-08-06T10:05:27;1.87;;;0.90;;
2646;SDS011;1333;50.958;6.770;2022-08-06T10:10:39;2.87;;;1.60;;
2646;SDS011;1333;50.958;6.770;2022-08-06T10:13:28;2.10;;;1.53;;
2646;SDS011;1333;50.958;6.770;2022-08-06T10:15:56;2.63;;;1.47;;
2646;SDS011;1333;50.958;6.770;2022-08-06T10:23:26;1.60;;;1.40;;
2646;SDS011;1333;50.958;6.770;2022-08-06T10:25:54;1.50;;;1.23;;
2646;SDS011;1333;50.958;6.770;2022-08-06T10:28:19;1.40;;;1.30;;
2646;SDS011;1333;50.958;6.770;2022-08-06T10:30:47;1.63;;;1.30;;
2646;SDS011;1333;50.958;6.770;2022-08-06T10:33:12;2.33;;;1.50;;
2646;SDS011;1333;50.958;6.770;2022-08-06T10:35:38;2.80;;;1.20;;
2646;SDS011;1333;50.958;6.770;2022-08-06T10:38:08;1.77;;;1.00;;
2646;SDS011;1333;50.958;6.770;2022-08-06T10:40:39;1.53;;;1.30;;
2646;SDS011;1333;50.958;6.770;2022-08-06T10:43:08;1.20;;;1.00;;
2646;SDS011;1333;50.958;6.770;2022-08-06T10:45:34;1.60;;;1.17;;
2646;SDS011;1333;50.958;6.770;2022-08-06T10:48:00;1.83;;;1.17;;
2646;SDS011;1333;50.958;6.770;2022-08-06T10:50:30;1.40;;;1.30;;
2646;SDS011;1333;50.958;6.770;2022-08-06T10:52:57;1.40;;;1.30;;
2646;SDS011;1333;50.958;6.770;2022-08-06T10:55:24;2.03;;;1.27;;
2646;SDS011;1333;50.958;6.770;2022-08-06T10:57:51;1.60;;;1.07;;
2646;SDS011;1333;50.958;6.770;2022-08-06T11:00:17;1.70;;;1.33;;
2646;SDS011;1333;50.958;6.770;2022-08-06T11:02:51;2.80;;;1.63;;
2646;SDS011;1333;50.958;6.770;2022-08-06T11:05:33;1.23;;;1.13;;
2646;SDS011;1333;50.958;6.770;2022-08-06T11:08:09;8.10;;;1.37;;
2646;SDS011;1333;50.958;6.770;2022-08-06T11:11:12;1.40;;;1.30;;
2646;SDS011;1333;50.958;6.770;2022-08-06T11:14:02;1.90;;;1.60;;
2646;SDS011;1333;50.958;6.770;2022-08-06T11:16:31;2.27;;;1.73;;
2646;SDS011;1333;50.958;6.770;2022-08-06T11:18:57;1.47;;;1.37;;
2646;SDS011;1333;50.958;6.770;2022-08-06T11:21:37;1.80;;;1.67;;
2646;SDS011;1333;50.958;6.770;2022-08-06T11:24:14;1.73;;;1.63;;
2646;SDS011;1333;50.958;6.770;2022-08-06T11:26:42;1.77;;;1.63;;
2646;SDS011;1333;50.958;6.770;2022-08-06T11:29:10;1.83;;;1.50;;
2646;SDS011;1333;50.958;6.770;2022-08-06T11:31:41;2.23;;;1.80;;
2646;SDS011;1333;50.958;6.770;2022-08-06T11:34:13;1.90;;;1.70;;
2646;SDS011;1333;50.958;6.770;2022-08-06T11:36:51;1.57;;;1.47;;
2646;SDS011;1333;50.958;6.770;2022-08-06T11:39:26;1.60;;;1.30;;
2646;SDS011;1333;50.958;6.770;2022-08-06T11:41:59;1.63;;;1.20;;
2646;SDS011;1333;50.958;6.770;2022-08-06T11:44:32;1.27;;;1.17;;
2646;SDS011;1333;50.958;6.770;2022-08-06T11:47:08;1.30;;;1.20;;
2646;SDS011;1333;50.958;6.770;2022-08-06T11:54:59;1.27;;;1.17;;
2646;SDS011;1333;50.958;6.770;2022-08-06T11:57:30;1.73;;;1.23;;
2646;SDS011;1333;50.958;6.770;2022-08-06T12:07:39;2.40;;;1.37;;
2646;SDS011;1333;50.958;6.770;2022-08-06T12:12:40;1.30;;;1.10;;
2646;SDS011;1333;50.958;6.770;2022-08-06T12:23:19;1.00;;;0.90;;
2646;SDS011;1333;50.958;6.770;2022-08-06T12:25:48;1.10;;;0.90;;
2646;SDS011;1333;50.958;6.770;2022-08-06T12:28:18;1.20;;;1.10;;
2646;SDS011;1333;50.958;6.770;2022-08-06T12:30:49;2.17;;;1.33;;
2646;SDS011;1333;50.958;6.770;2022-08-06T12:33:17;1.30;;;1.10;;
2646;SDS011;1333;50.958;6.770;2022-08-06T12:35:51;2.10;;;1.90;;
2646;SDS011;1333;50.958;6.770;2022-08-06T12:38:18;1.33;;;1.23;;
2646;SDS011;1333;50.958;6.770;2022-08-06T12:40:56;1.50;;;1.20;;
2646;SDS011;1333;50.958;6.770;2022-08-06T12:43:23;1.00;;;0.90;;
2646;SDS011;1333;50.958;6.770;2022-08-06T12:45:57;1.00;;;0.90;;
2646;SDS011;1333;50.958;6.770;2022-08-06T12:48:24;1.27;;;1.00;;
2646;SDS011;1333;50.958;6.770;2022-08-06T12:50:49;1.63;;;1.20;;
2646;SDS011;1333;50.958;6.770;2022-08-06T12:53:25;1.50;;;1.00;;
2646;SDS011;1333;50.958;6.770;2022-08-06T12:55:51;1.20;;;1.07;;
2646;SDS011;1333;50.958;6.770;2022-08-06T12:58:19;1.60;;;1.20;;
2646;SDS011;1333;50.958;6.770;2022-08-06T13:00:54;1.00;;;0.90;;
2646;SDS011;1333;50.958;6.770;2022-08-06T13:03:23;1.37;;;1.27;;
2646;SDS011;1333;50.958;6.770;2022-08-06T13:05:50;1.70;;;1.23;;
2646;SDS011;1333;50.958;6.770;2022-08-06T13:08:18;1.57;;;1.30;;
2646;SDS011;1333;50.958;6.770;2022-08-06T13:10:48;1.40;;;1.00;;
2646;SDS011;1333;50.958;6.770;2022-08-06T13:13:15;1.40;;;1.30;;
2646;SDS011;1333;50.958;6.770;2022-08-06T13:15:41;1.87;;;1.20;;
2646;SDS011;1333;50.958;6.770;2022-08-06T13:20:38;1.50;;;1.40;;
2646;SDS011;1333;50.958;6.770;2022-08-06T13:23:09;2.60;;;1.83;;
2646;SDS011;1333;50.958;6.770;2022-08-06T13:28:11;1.93;;;1.57;;
2646;SDS011;1333;50.958;6.770;2022-08-06T13:30:39;3.57;;;1.20;;
2646;SDS011;1333;50.958;6.770;2022-08-06T13:33:18;1.40;;;1.30;;
2646;SDS011;1333;50.958;6.770;2022-08-06T13:35:45;1.40;;;1.30;;
2646;SDS011;1333;50.958;6.770;2022-08-06T13:38:25;1.20;;;1.10;;
2646;SDS011;1333;50.958;6.770;2022-08-06T13:40:51;1.40;;;1.30;;
2646;SDS011;1333;50.958;6.770;2022-08-06T13:43:17;2.43;;;1.10;;
2646;SDS011;1333;50.958;6.770;2022-08-06T13:45:44;3.20;;;1.97;;
2646;SDS011;1333;50.958;6.770;2022-08-06T13:48:10;2.70;;;1.70;;
2646;SDS011;1333;50.958;6.770;2022-08-06T13:50:40;2.27;;;1.20;;
2646;SDS011;1333;50.958;6.770;2022-08-06T13:53:08;1.60;;;1.50;;
2646;SDS011;1333;50.958;6.770;2022-08-06T13:55:35;2.03;;;1.47;;
2646;SDS011;1333;50.958;6.770;2022-08-06T13:58:01;2.80;;;1.37;;
2646;SDS011;1333;50.958;6.770;2022-08-06T14:00:27;1.20;;;1.10;;
2646;SDS011;1333;50.958;6.770;2022-08-06T14:02:53;1.33;;;1.10;;
2646;SDS011;1333;50.958;6.770;2022-08-06T14:05:20;1.67;;;1.37;;
2646;SDS011;1333;50.958;6.770;2022-08-06T14:07:46;4.77;;;4.40;;
2646;SDS011;1333;50.958;6.770;2022-08-06T14:10:12;4.00;;;3.70;;
2646;SDS011;1333;50.958;6.770;2022-08-06T14:12:37;3.70;;;3.50;;
2646;SDS011;1333;50.958;6.770;2022-08-06T14:15:04;3.60;;;3.40;;
2646;SDS011;1333;50.958;6.770;2022-08-06T14:17:30;3.70;;;3.30;;
2646;SDS011;1333;50.958;6.770;2022-08-06T14:19:55;3.37;;;3.17;;
2646;SDS011;1333;50.958;6.770;2022-08-06T14:22:21;3.90;;;3.20;;
2646;SDS011;1333;50.958;6.770;2022-08-06T14:24:46;3.07;;;2.87;;
2646;SDS011;1333;50.958;6.770;2022-08-06T14:27:12;3.00;;;2.70;;
2646;SDS011;1333;50.958;6.770;2022-08-06T14:29:38;1.63;;;1.37;;
2646;SDS011;1333;50.958;6.770;2022-08-06T14:32:04;2.70;;;2.00;;
2646;SDS011;1333;50.958;6.770;2022-08-06T14:34:32;2.37;;;2.27;;
2646;SDS011;1333;50.958;6.770;2022-08-06T14:36:58;2.10;;;2.00;;
2646;SDS011;1333;50.958;6.770;2022-08-06T14:39:23;3.13;;;2.70;;
2646;SDS011;1333;50.958;6.770;2022-08-06T14:41:49;3.60;;;2.73;;
2646;SDS011;1333;50.958;6.770;2022-08-06T14:44:33;2.87;;;2.60;;
2646;SDS011;1333;50.958;6.770;2022-08-06T14:47:18;2.70;;;2.27;;
2646;SDS011;1333;50.958;6.770;2022-08-06T14:49:43;2.70;;;2.50;;
2646;SDS011;1333;50.958;6.770;2022-08-06T14:52:09;2.70;;;2.50;;
2646;SDS011;1333;50.958;6.770;2022-08-06T14:54:36;3.00;;;2.80;;
2646;SDS011;1333;50.958;6.770;2022-08-06T14:57:03;5.53;;;4.07;;
2646;SDS011;1333;50.958;6.770;2022-08-06T14:59:30;2.83;;;2.63;;
2646;SDS011;1333;50.958;6.770;2022-08-06T15:01:56;3.30;;;3.03;;
2646;SDS011;1333;50.958;6.770;2022-08-06T15:04:21;2.50;;;2.30;;
2646;SDS011;1333;50.958;6.770;2022-08-06T15:06:47;2.17;;;1.73;;
2646;SDS011;1333;50.958;6.770;2022-08-06T15:09:13;1.60;;;1.30;;
2646;SDS011;1333;50.958;6.770;2022-08-06T15:11:39;4.10;;;1.63;;
2646;SDS011;1333;50.958;6.770;2022-08-06T15:14:05;2.40;;;1.00;;
2646;SDS011;1333;50.958;6.770;2022-08-06T15:16:30;1.17;;;1.00;;
2646;SDS011;1333;50.958;6.770;2022-08-06T15:18:56;1.10;;;0.80;;
2646;SDS011;1333;50.958;6.770;2022-08-06T15:21:22;1.00;;;0.70;;
2646;SDS011;1333;50.958;6.770;2022-08-06T15:23:47;1.37;;;0.90;;
2646;SDS011;1333;50.958;6.770;2022-08-06T15:26:13;3.00;;;1.10;;
2646;SDS011;1333;50.958;6.770;2022-08-06T15:28:39;1.87;;;1.17;;
2646;SDS011;1333;50.958;6.770;2022-08-06T15:31:05;9.67;;;6.57;;
2646;SDS011;1333;50.958;6.770;2022-08-06T15:33:32;2.67;;;2.07;;
2646;SDS011;1333;50.958;6.770;2022-08-06T15:35:58;1.30;;;1.00;;
2646;SDS011;1333;50.958;6.770;2022-08-06T15:38:27;1.70;;;1.07;;
2646;SDS011;1333;50.958;6.770;2022-08-06T15:40:54;2.30;;;1.33;;
2646;SDS011;1333;50.958;6.770;2022-08-06T15:43:20;1.30;;;1.20;;
2646;SDS011;1333;50.958;6.770;2022-08-06T15:45:46;1.30;;;1.17;;
2646;SDS011;1333;50.958;6.770;2022-08-06T15:48:12;1.30;;;0.90;;
2646;SDS011;1333;50.958;6.770;2022-08-06T15:50:41;1.10;;;0.80;;
2646;SDS011;1333;50.958;6.770;2022-08-06T15:53:08;1.10;;;0.90;;
2646;SDS011;1333;50.958;6.770;2022-08-06T15:55:36;1.77;;;1.30;;
2646;SDS011;1333;50.958;6.770;2022-08-06T15:58:02;1.00;;;0.70;;
2646;SDS011;1333;50.958;6.770;2022-08-06T16:00:28;1.20;;;1.00;;
2646;SDS011;1333;50.958;6.770;2022-08-06T16:02:53;1.37;;;1.10;;
2646;SDS011;1333;50.958;6.770;2022-08-06T16:05:19;2.23;;;0.80;;
2646;SDS011;1333;50.958;6.770;2022-08-06T16:07:45;4.07;;;1.20;;
2646;SDS011;1333;50.958;6.770;2022-08-06T16:10:11;2.50;;;2.30;;
2646;SDS011;1333;50.958;6.770;2022-08-06T16:12:37;1.27;;;1.00;;
2646;SDS011;1333;50.958;6.770;2022-08-06T16:15:04;1.30;;;0.90;;
2646;SDS011;1333;50.958;6.770;2022-08-06T16:17:30;1.20;;;0.93;;
2646;SDS011;1333;50.958;6.770;2022-08-06T16:19:56;1.30;;;1.00;;
2646;SDS011;1333;50.958;6.770;2022-08-06T16:22:21;1.80;;;1.00;;
2646;SDS011;1333;50.958;6.770;2022-08-06T16:24:47;1.10;;;0.90;;
2646;SDS011;1333;50.958;6.770;2022-08-06T16:27:13;1.57;;;1.00;;
2646;SDS011;1333;50.958;6.770;2022-08-06T16:29:41;1.20;;;1.00;;
2646;SDS011;1333;50.958;6.770;2022-08-06T16:32:07;1.00;;;0.77;;
2646;SDS011;1333;50.958;6.770;2022-08-06T16:34:32;3.60;;;1.50;;
2646;SDS011;1333;50.958;6.770;2022-08-06T16:36:58;1.00;;;0.70;;